52.0°F
Current conditions from King Hill
Updated every 5 minutes
 
  Tuesday September 23, 2014

Station Historical Data
Daily Summary for March 28, 2012 Units:  Both    English   Metric
« Previous Day
Next Day »
Daily Weekly Monthly Yearly Custom
  High: Low: Average:
Temperature: 45.5 °F /  7.5 °C 29.2 °F /  -1.6 °C 37.2 °F /  2.9 °C
Dew Point: 37.6 °F /  3.1 °C 5.4 °F /  -14.8 °C 25.3 °F /  -3.7 °C
Humidity: 91% 33% 64%
Wind Speed: 11.0mph /  17.7km/h - 4.7mph /  7.6km/h
Wind Gust: 25.0mph /  40.2km/h - -
Wind- - SW
Pressure: 30.08 in /  1018.5 hPa 29.46 in /  997.5 hPa -
Precipitation: 0.13 in /  3.3 mm    
Historical Graphs
 
 
Tabular Data for March 28, 2012
Time Temperature Dew Point Pressure Wind Wind Speed Wind Gust Humidity Daily Rainfall
00:04 29.9 °F /  -1.2 °C 7.4 °F /  -13.7 °C 30.05in /  1017.5hPa SSW 3.0mph /  4.8km/h 9.0mph /  14.5km/h 38% 0.00in /  0mm
00:09 29.7 °F /  -1.3 °C 7.8 °F /  -13.4 °C 30.05in /  1017.5hPa SW 3.0mph /  4.8km/h 8.0mph /  12.9km/h 39% 0.00in /  0mm
00:14 29.4 °F /  -1.4 °C 8.6 °F /  -13 °C 30.06in /  1017.8hPa SSW 3.0mph /  4.8km/h 8.0mph /  12.9km/h 41% 0.00in /  0mm
00:19 29.2 °F /  -1.6 °C 8.4 °F /  -13.1 °C 30.04in /  1017.2hPa SSW 3.0mph /  4.8km/h 7.0mph /  11.3km/h 41% 0.00in /  0mm
00:24 29.3 °F /  -1.5 °C 8.0 °F /  -13.3 °C 30.05in /  1017.5hPa SSW 2.0mph /  3.2km/h 7.0mph /  11.3km/h 40% 0.00in /  0mm
00:29 29.5 °F /  -1.4 °C 8.7 °F /  -12.9 °C 30.05in /  1017.5hPa SW 3.0mph /  4.8km/h 6.0mph /  9.7km/h 41% 0.00in /  0mm
00:34 29.5 °F /  -1.4 °C 8.7 °F /  -12.9 °C 30.05in /  1017.5hPa SSW 2.0mph /  3.2km/h 5.0mph /  8km/h 41% 0.00in /  0mm
00:39 29.6 °F /  -1.3 °C 8.2 °F /  -13.2 °C 30.05in /  1017.5hPa SSW 3.0mph /  4.8km/h 6.0mph /  9.7km/h 40% 0.00in /  0mm
00:44 29.8 °F /  -1.2 °C 7.3 °F /  -13.7 °C 30.04in /  1017.2hPa SSW 2.0mph /  3.2km/h 6.0mph /  9.7km/h 38% 0.00in /  0mm
00:49 30.1 °F /  -1.1 °C 6.9 °F /  -13.9 °C 30.04in /  1017.2hPa South 2.0mph /  3.2km/h 6.0mph /  9.7km/h 37% 0.00in /  0mm
00:54 30.5 °F /  -0.8 °C 6.7 °F /  -14.1 °C 30.03in /  1016.8hPa South 1.0mph /  1.6km/h 7.0mph /  11.3km/h 36% 0.00in /  0mm
00:59 30.8 °F /  -0.7 °C 6.4 °F /  -14.2 °C 30.04in /  1017.2hPa Calm   7.0mph /  11.3km/h 35% 0.00in /  0mm
01:05 31.2 °F /  -0.4 °C 5.4 °F /  -14.8 °C 30.04in /  1017.2hPa South 1.0mph /  1.6km/h 6.0mph /  9.7km/h 33% 0.00in /  0mm
01:14 31.3 °F /  -0.4 °C 6.8 °F /  -14 °C 30.06in /  1017.8hPa Calm   3.0mph /  4.8km/h 35% 0.00in /  0mm
01:19 31.2 °F /  -0.4 °C 8.5 °F /  -13.1 °C 30.07in /  1018.2hPa Calm   3.0mph /  4.8km/h 38% 0.00in /  0mm
01:24 31.0 °F /  -0.6 °C 9.5 °F /  -12.5 °C 30.08in /  1018.5hPa South 1.0mph /  1.6km/h 3.0mph /  4.8km/h 40% 0.00in /  0mm
01:29 30.5 °F /  -0.8 °C 10.1 °F /  -12.2 °C 30.08in /  1018.5hPa Calm   3.0mph /  4.8km/h 42% 0.00in /  0mm
01:35 30.2 °F /  -1 °C 10.4 °F /  -12 °C 30.08in /  1018.5hPa Calm   2.0mph /  3.2km/h 43% 0.00in /  0mm
01:44 29.9 °F /  -1.2 °C 9.6 °F /  -12.4 °C 30.08in /  1018.5hPa Calm   3.0mph /  4.8km/h 42% 0.00in /  0mm
01:49 29.9 °F /  -1.2 °C 8.5 °F /  -13.1 °C 30.07in /  1018.2hPa Calm   3.0mph /  4.8km/h 40% 0.00in /  0mm
01:54 29.9 °F /  -1.2 °C 10.6 °F /  -11.9 °C 30.07in /  1018.2hPa Calm     44% 0.00in /  0mm
01:59 30.0 °F /  -1.1 °C 10.7 °F /  -11.8 °C 30.07in /  1018.2hPa Calm     44% 0.00in /  0mm
02:04 30.1 °F /  -1.1 °C 9.2 °F /  -12.7 °C 30.06in /  1017.8hPa East 1.0mph /  1.6km/h 3.0mph /  4.8km/h 41% 0.00in /  0mm
02:09 30.3 °F /  -0.9 °C 8.9 °F /  -12.8 °C 30.06in /  1017.8hPa ENE 1.0mph /  1.6km/h 5.0mph /  8km/h 40% 0.00in /  0mm
02:14 30.4 °F /  -0.9 °C 8.9 °F /  -12.8 °C 30.05in /  1017.5hPa ENE 1.0mph /  1.6km/h 5.0mph /  8km/h 40% 0.00in /  0mm
02:19 30.3 °F /  -0.9 °C 9.9 °F /  -12.3 °C 30.05in /  1017.5hPa East 1.0mph /  1.6km/h 5.0mph /  8km/h 42% 0.00in /  0mm
02:24 30.2 °F /  -1 °C 10.4 °F /  -12 °C 30.05in /  1017.5hPa ENE 1.0mph /  1.6km/h 5.0mph /  8km/h 43% 0.00in /  0mm
02:29 30.2 °F /  -1 °C 9.9 °F /  -12.3 °C 30.04in /  1017.2hPa Calm   5.0mph /  8km/h 42% 0.00in /  0mm
02:34 30.2 °F /  -1 °C 11.4 °F /  -11.4 °C 30.04in /  1017.2hPa Calm   4.0mph /  6.4km/h 45% 0.00in /  0mm
02:39 30.2 °F /  -1 °C 10.9 °F /  -11.7 °C 30.03in /  1016.8hPa Calm   2.0mph /  3.2km/h 44% 0.00in /  0mm
02:44 30.4 °F /  -0.9 °C 11.6 °F /  -11.3 °C 30.03in /  1016.8hPa Calm   2.0mph /  3.2km/h 45% 0.00in /  0mm
02:49 30.6 °F /  -0.8 °C 13.2 °F /  -10.4 °C 30.03in /  1016.8hPa Calm   2.0mph /  3.2km/h 48% 0.00in /  0mm
02:54 30.8 °F /  -0.7 °C 11.4 °F /  -11.4 °C 30.03in /  1016.8hPa SSW 1.0mph /  1.6km/h 3.0mph /  4.8km/h 44% 0.00in /  0mm
02:59 31.2 °F /  -0.4 °C 10.8 °F /  -11.8 °C 30.02in /  1016.5hPa SSW 2.0mph /  3.2km/h 6.0mph /  9.7km/h 42% 0.00in /  0mm
03:04 31.6 °F /  -0.2 °C 10.6 °F /  -11.9 °C 30.02in /  1016.5hPa SSW 4.0mph /  6.4km/h 9.0mph /  14.5km/h 41% 0.00in /  0mm
03:09 31.7 °F /  -0.2 °C 11.2 °F /  -11.6 °C 30.01in /  1016.1hPa South 2.0mph /  3.2km/h 9.0mph /  14.5km/h 42% 0.00in /  0mm
03:14 31.6 °F /  -0.2 °C 11.1 °F /  -11.6 °C 30.01in /  1016.1hPa South 3.0mph /  4.8km/h 8.0mph /  12.9km/h 42% 0.00in /  0mm
03:19 31.5 °F /  -0.3 °C 11.6 °F /  -11.3 °C 30.01in /  1016.1hPa South 3.0mph /  4.8km/h 7.0mph /  11.3km/h 43% 0.00in /  0mm
03:24 31.3 °F /  -0.4 °C 13.4 °F /  -10.3 °C 30.01in /  1016.1hPa South 2.0mph /  3.2km/h 8.0mph /  12.9km/h 47% 0.00in /  0mm
03:29 31.1 °F /  -0.5 °C 14.2 °F /  -9.9 °C 29.99in /  1015.5hPa SSE 3.0mph /  4.8km/h 8.0mph /  12.9km/h 49% 0.00in /  0mm
03:34 31.0 °F /  -0.6 °C 14.5 °F /  -9.7 °C 29.99in /  1015.5hPa South 4.0mph /  6.4km/h 9.0mph /  14.5km/h 50% 0.00in /  0mm
03:39 31.0 °F /  -0.6 °C 15.0 °F /  -9.4 °C 29.99in /  1015.5hPa South 4.0mph /  6.4km/h 9.0mph /  14.5km/h 51% 0.00in /  0mm
03:44 31.1 °F /  -0.5 °C 16.0 °F /  -8.9 °C 29.99in /  1015.5hPa SSW 1.0mph /  1.6km/h 8.0mph /  12.9km/h 53% 0.00in /  0mm
03:49 31.2 °F /  -0.4 °C 16.5 °F /  -8.6 °C 29.99in /  1015.5hPa South 2.0mph /  3.2km/h 9.0mph /  14.5km/h 54% 0.00in /  0mm
03:59 31.1 °F /  -0.5 °C 19.6 °F /  -6.9 °C 29.98in /  1015.1hPa South 3.0mph /  4.8km/h 9.0mph /  14.5km/h 62% 0.00in /  0mm
04:04 30.8 °F /  -0.7 °C 20.1 °F /  -6.6 °C 29.98in /  1015.1hPa South 4.0mph /  6.4km/h 9.0mph /  14.5km/h 64% 0.00in /  0mm
04:09 30.7 °F /  -0.7 °C 20.3 °F /  -6.5 °C 29.98in /  1015.1hPa South 1.0mph /  1.6km/h 7.0mph /  11.3km/h 65% 0.00in /  0mm
04:14 30.7 °F /  -0.7 °C 20.7 °F /  -6.3 °C 29.97in /  1014.8hPa Calm   5.0mph /  8km/h 66% 0.00in /  0mm
04:20 30.6 °F /  -0.8 °C 21.3 °F /  -5.9 °C 29.97in /  1014.8hPa SSW 1.0mph /  1.6km/h 6.0mph /  9.7km/h 68% 0.00in /  0mm
04:29 30.0 °F /  -1.1 °C 22.7 °F /  -5.2 °C 29.96in /  1014.4hPa SSE 1.0mph /  1.6km/h 7.0mph /  11.3km/h 74% 0.00in /  0mm
04:35 29.9 °F /  -1.2 °C 22.9 °F /  -5.1 °C 29.96in /  1014.4hPa SW 1.0mph /  1.6km/h 5.0mph /  8km/h 75% 0.00in /  0mm
04:40 29.9 °F /  -1.2 °C 23.6 °F /  -4.7 °C 29.96in /  1014.4hPa SW 1.0mph /  1.6km/h 5.0mph /  8km/h 77% 0.00in /  0mm
04:45 29.9 °F /  -1.2 °C 23.9 °F /  -4.5 °C 29.95in /  1014.1hPa SSW 2.0mph /  3.2km/h 9.0mph /  14.5km/h 78% 0.00in /  0mm
04:50 29.8 °F /  -1.2 °C 24.1 °F /  -4.4 °C 29.95in /  1014.1hPa South 3.0mph /  4.8km/h 9.0mph /  14.5km/h 79% 0.00in /  0mm
04:59 29.5 °F /  -1.4 °C 24.4 °F /  -4.2 °C 29.94in /  1013.8hPa SSW 3.0mph /  4.8km/h 10.0mph /  16.1km/h 81% 0.00in /  0mm
05:04 29.4 °F /  -1.4 °C 24.9 °F /  -3.9 °C 29.92in /  1013.1hPa SSW 6.0mph /  9.7km/h 10.0mph /  16.1km/h 83% 0.00in /  0mm
05:09 29.4 °F /  -1.4 °C 24.9 °F /  -3.9 °C 29.92in /  1013.1hPa South 3.0mph /  4.8km/h 10.0mph /  16.1km/h 83% 0.00in /  0mm
05:14 29.4 °F /  -1.4 °C 25.2 °F /  -3.8 °C 29.91in /  1012.8hPa South 3.0mph /  4.8km/h 9.0mph /  14.5km/h 84% 0.00in /  0mm
05:19 29.4 °F /  -1.4 °C 25.2 °F /  -3.8 °C 29.91in /  1012.8hPa South 2.0mph /  3.2km/h 7.0mph /  11.3km/h 84% 0.00in /  0mm
05:24 29.6 °F /  -1.3 °C 25.4 °F /  -3.7 °C 29.91in /  1012.8hPa South 3.0mph /  4.8km/h 7.0mph /  11.3km/h 84% 0.00in /  0mm
05:29 29.7 °F /  -1.3 °C 25.5 °F /  -3.6 °C 29.90in /  1012.4hPa Calm   7.0mph /  11.3km/h 84% 0.00in /  0mm
05:34 29.8 °F /  -1.2 °C 25.6 °F /  -3.6 °C 29.90in /  1012.4hPa SSW 1.0mph /  1.6km/h 5.0mph /  8km/h 84% 0.00in /  0mm
05:44 30.2 °F /  -1 °C 25.4 °F /  -3.7 °C 29.90in /  1012.4hPa Calm   5.0mph /  8km/h 82% 0.00in /  0mm
05:49 30.3 °F /  -0.9 °C 25.5 °F /  -3.6 °C 29.90in /  1012.4hPa South 1.0mph /  1.6km/h 6.0mph /  9.7km/h 82% 0.00in /  0mm
05:54 30.5 °F /  -0.8 °C 25.4 °F /  -3.7 °C 29.90in /  1012.4hPa SSW 2.0mph /  3.2km/h 7.0mph /  11.3km/h 81% 0.00in /  0mm
05:59 30.8 °F /  -0.7 °C 25.4 °F /  -3.7 °C 29.89in /  1012.1hPa South 5.0mph /  8km/h 9.0mph /  14.5km/h 80% 0.00in /  0mm
06:04 31.5 °F /  -0.3 °C 25.4 °F /  -3.7 °C 29.89in /  1012.1hPa South 4.0mph /  6.4km/h 12.0mph /  19.3km/h 78% 0.00in /  0mm
06:09 31.7 °F /  -0.2 °C 25.0 °F /  -3.9 °C 29.88in /  1011.7hPa South 5.0mph /  8km/h 12.0mph /  19.3km/h 76% 0.00in /  0mm
06:14 31.7 °F /  -0.2 °C 24.7 °F /  -4.1 °C 29.87in /  1011.4hPa South 2.0mph /  3.2km/h 12.0mph /  19.3km/h 75% 0.00in /  0mm
06:19 31.7 °F /  -0.2 °C 24.4 °F /  -4.2 °C 29.86in /  1011.1hPa South 6.0mph /  9.7km/h 12.0mph /  19.3km/h 74% 0.00in /  0mm
06:24 31.8 °F /  -0.1 °C 24.5 °F /  -4.2 °C 29.85in /  1010.7hPa South 4.0mph /  6.4km/h 12.0mph /  19.3km/h 74% 0.00in /  0mm
06:29 31.9 °F /  -0.1 °C 24.2 °F /  -4.3 °C 29.84in /  1010.4hPa South 3.0mph /  4.8km/h 9.0mph /  14.5km/h 73% 0.00in /  0mm
06:34 32.0 °F /  0 °C 24.0 °F /  -4.4 °C 29.84in /  1010.4hPa South 4.0mph /  6.4km/h 9.0mph /  14.5km/h 72% 0.00in /  0mm
06:39 32.1 °F /  0.1 °C 24.1 °F /  -4.4 °C 29.83in /  1010hPa South 3.0mph /  4.8km/h 9.0mph /  14.5km/h 72% 0.00in /  0mm
06:45 32.2 °F /  0.1 °C 23.9 °F /  -4.5 °C 29.83in /  1010hPa South 3.0mph /  4.8km/h 9.0mph /  14.5km/h 71% 0.00in /  0mm
06:55 32.6 °F /  0.3 °C 23.9 °F /  -4.5 °C 29.83in /  1010hPa South 4.0mph /  6.4km/h 11.0mph /  17.7km/h 70% 0.00in /  0mm
07:04 32.9 °F /  0.5 °C 23.8 °F /  -4.6 °C 29.83in /  1010hPa SSW 4.0mph /  6.4km/h 9.0mph /  14.5km/h 69% 0.00in /  0mm
07:09 33.0 °F /  0.6 °C 23.9 °F /  -4.5 °C 29.83in /  1010hPa South 2.0mph /  3.2km/h 7.0mph /  11.3km/h 69% 0.00in /  0mm
07:14 33.0 °F /  0.6 °C 23.9 °F /  -4.5 °C 29.83in /  1010hPa SSW 4.0mph /  6.4km/h 9.0mph /  14.5km/h 69% 0.00in /  0mm
07:19 33.0 °F /  0.6 °C 23.9 °F /  -4.5 °C 29.82in /  1009.7hPa Calm   9.0mph /  14.5km/h 69% 0.00in /  0mm
07:24 33.2 °F /  0.7 °C 23.4 °F /  -4.8 °C 29.82in /  1009.7hPa South 5.0mph /  8km/h 9.0mph /  14.5km/h 67% 0.00in /  0mm
07:29 33.4 °F /  0.8 °C 23.3 °F /  -4.8 °C 29.82in /  1009.7hPa SSW 4.0mph /  6.4km/h 11.0mph /  17.7km/h 66% 0.00in /  0mm
07:34 33.5 °F /  0.8 °C 23.0 °F /  -5 °C 29.82in /  1009.7hPa South 4.0mph /  6.4km/h 11.0mph /  17.7km/h 65% 0.00in /  0mm
07:39 33.7 °F /  0.9 °C 23.2 °F /  -4.9 °C 29.81in /  1009.4hPa South 2.0mph /  3.2km/h 9.0mph /  14.5km/h 65% 0.00in /  0mm
07:45 33.8 °F /  1 °C 22.9 °F /  -5.1 °C 29.81in /  1009.4hPa South 3.0mph /  4.8km/h 9.0mph /  14.5km/h 64% 0.00in /  0mm
07:54 34.1 °F /  1.2 °C 22.4 °F /  -5.3 °C 29.80in /  1009hPa SSW 5.0mph /  8km/h 9.0mph /  14.5km/h 62% 0.00in /  0mm
08:00 34.4 °F /  1.3 °C 22.3 °F /  -5.4 °C 29.80in /  1009hPa South 7.0mph /  11.3km/h 12.0mph /  19.3km/h 61% 0.00in /  0mm
08:10 34.6 °F /  1.4 °C 22.5 °F /  -5.3 °C 29.79in /  1008.7hPa SSW 3.0mph /  4.8km/h 12.0mph /  19.3km/h 61% 0.00in /  0mm
08:19 34.8 °F /  1.6 °C 22.3 °F /  -5.4 °C 29.78in /  1008.4hPa South 5.0mph /  8km/h 11.0mph /  17.7km/h 60% 0.00in /  0mm
08:25 34.9 °F /  1.6 °C 21.6 °F /  -5.8 °C 29.78in /  1008.4hPa SSW 5.0mph /  8km/h 10.0mph /  16.1km/h 58% 0.00in /  0mm
08:34 35.2 °F /  1.8 °C 21.5 °F /  -5.8 °C 29.76in /  1007.7hPa South 7.0mph /  11.3km/h 13.0mph /  20.9km/h 57% 0.00in /  0mm
08:39 35.4 °F /  1.9 °C 21.3 °F /  -5.9 °C 29.76in /  1007.7hPa SSW 7.0mph /  11.3km/h 14.0mph /  22.5km/h 56% 0.00in /  0mm
08:44 35.5 °F /  1.9 °C 20.9 °F /  -6.2 °C 29.75in /  1007.3hPa South 5.0mph /  8km/h 15.0mph /  24.1km/h 55% 0.00in /  0mm
08:49 35.7 °F /  2.1 °C 21.1 °F /  -6.1 °C 29.74in /  1007hPa South 7.0mph /  11.3km/h 15.0mph /  24.1km/h 55% 0.00in /  0mm
08:54 35.8 °F /  2.1 °C 21.2 °F /  -6 °C 29.75in /  1007.3hPa South 7.0mph /  11.3km/h 15.0mph /  24.1km/h 55% 0.00in /  0mm
08:59 35.8 °F /  2.1 °C 21.2 °F /  -6 °C 29.74in /  1007hPa SSW 7.0mph /  11.3km/h 15.0mph /  24.1km/h 55% 0.00in /  0mm
09:09 35.9 °F /  2.2 °C 21.3 °F /  -5.9 °C 29.73in /  1006.7hPa SSW 7.0mph /  11.3km/h 16.0mph /  25.7km/h 55% 0.00in /  0mm
09:14 36.0 °F /  2.2 °C 21.8 °F /  -5.7 °C 29.74in /  1007hPa SSW 5.0mph /  8km/h 13.0mph /  20.9km/h 56% 0.00in /  0mm
09:19 36.0 °F /  2.2 °C 21.4 °F /  -5.9 °C 29.73in /  1006.7hPa SSW 7.0mph /  11.3km/h 14.0mph /  22.5km/h 55% 0.00in /  0mm
09:24 36.1 °F /  2.3 °C 21.5 °F /  -5.8 °C 29.72in /  1006.3hPa South 7.0mph /  11.3km/h 17.0mph /  27.4km/h 55% 0.00in /  0mm
09:34 36.4 °F /  2.4 °C 21.8 °F /  -5.7 °C 29.72in /  1006.3hPa SSW 9.0mph /  14.5km/h 18.0mph /  29km/h 55% 0.00in /  0mm
09:39 36.6 °F /  2.6 °C 21.5 °F /  -5.8 °C 29.72in /  1006.3hPa South 6.0mph /  9.7km/h 18.0mph /  29km/h 54% 0.00in /  0mm
09:44 36.7 °F /  2.6 °C 21.6 °F /  -5.8 °C 29.72in /  1006.3hPa SSW 7.0mph /  11.3km/h 13.0mph /  20.9km/h 54% 0.00in /  0mm
09:49 36.8 °F /  2.7 °C 21.7 °F /  -5.7 °C 29.72in /  1006.3hPa South 6.0mph /  9.7km/h 12.0mph /  19.3km/h 54% 0.00in /  0mm
09:54 36.9 °F /  2.7 °C 21.4 °F /  -5.9 °C 29.72in /  1006.3hPa SSW 8.0mph /  12.9km/h 15.0mph /  24.1km/h 53% 0.00in /  0mm
09:59 37.1 °F /  2.8 °C 21.5 °F /  -5.8 °C 29.71in /  1006hPa SSW 6.0mph /  9.7km/h 15.0mph /  24.1km/h 53% 0.00in /  0mm
10:04 37.3 °F /  2.9 °C 20.8 °F /  -6.2 °C 29.71in /  1006hPa SSW 9.0mph /  14.5km/h 17.0mph /  27.4km/h 51% 0.00in /  0mm
10:09 37.5 °F /  3.1 °C 20.5 °F /  -6.4 °C 29.69in /  1005.3hPa South 8.0mph /  12.9km/h 17.0mph /  27.4km/h 50% 0.00in /  0mm
10:14 37.0 °F /  2.8 °C 23.2 °F /  -4.9 °C 29.64in /  1003.6hPa South 11.0mph /  17.7km/h 25.0mph /  40.2km/h 57% 0.00in /  0mm
10:19 36.2 °F /  2.3 °C 23.7 °F /  -4.6 °C 29.68in /  1005hPa SSW 8.0mph /  12.9km/h 25.0mph /  40.2km/h 60% 0.00in /  0mm
10:24 35.9 °F /  2.2 °C 24.2 °F /  -4.3 °C 29.67in /  1004.6hPa SSW 6.0mph /  9.7km/h 16.0mph /  25.7km/h 62% 0.00in /  0mm
10:29 36.0 °F /  2.2 °C 24.6 °F /  -4.1 °C 29.67in /  1004.6hPa SSW 7.0mph /  11.3km/h 13.0mph /  20.9km/h 63% 0.00in /  0mm
10:34 36.5 °F /  2.5 °C 25.1 °F /  -3.8 °C 29.67in /  1004.6hPa SSW 6.0mph /  9.7km/h 15.0mph /  24.1km/h 63% 0.00in /  0mm
10:44 36.8 °F /  2.7 °C 25.0 °F /  -3.9 °C 29.67in /  1004.6hPa SSW 6.0mph /  9.7km/h 15.0mph /  24.1km/h 62% 0.01in /  0.3mm
10:49 36.6 °F /  2.6 °C 24.4 °F /  -4.2 °C 29.66in /  1004.3hPa South 7.0mph /  11.3km/h 14.0mph /  22.5km/h 61% 0.01in /  0.3mm
10:54 36.6 °F /  2.6 °C 24.8 °F /  -4 °C 29.66in /  1004.3hPa SSW 5.0mph /  8km/h 14.0mph /  22.5km/h 62% 0.01in /  0.3mm
10:59 36.7 °F /  2.6 °C 25.3 °F /  -3.7 °C 29.66in /  1004.3hPa South 3.0mph /  4.8km/h 11.0mph /  17.7km/h 63% 0.01in /  0.3mm
11:04 36.8 °F /  2.7 °C 24.6 °F /  -4.1 °C 29.65in /  1003.9hPa South 5.0mph /  8km/h 10.0mph /  16.1km/h 61% 0.01in /  0.3mm
11:09 37.0 °F /  2.8 °C 24.4 °F /  -4.2 °C 29.65in /  1003.9hPa South 5.0mph /  8km/h 11.0mph /  17.7km/h 60% 0.01in /  0.3mm
11:14 37.2 °F /  2.9 °C 24.6 °F /  -4.1 °C 29.66in /  1004.3hPa SSW 4.0mph /  6.4km/h 11.0mph /  17.7km/h 60% 0.01in /  0.3mm
11:19 37.3 °F /  2.9 °C 25.1 °F /  -3.8 °C 29.67in /  1004.6hPa SSW 3.0mph /  4.8km/h 11.0mph /  17.7km/h 61% 0.01in /  0.3mm
11:24 37.3 °F /  2.9 °C 24.7 °F /  -4.1 °C 29.67in /  1004.6hPa SSW 3.0mph /  4.8km/h 12.0mph /  19.3km/h 60% 0.01in /  0.3mm
11:29 37.5 °F /  3.1 °C 24.1 °F /  -4.4 °C 29.66in /  1004.3hPa SSW 5.0mph /  8km/h 12.0mph /  19.3km/h 58% 0.01in /  0.3mm
12:09 40.0 °F /  4.4 °C 26.0 °F /  -3.3 °C 29.60in /  1002.3hPa SSW 4.0mph /  6.4km/h 16.0mph /  25.7km/h 57% 0.02in /  0.5mm
12:14 40.4 °F /  4.7 °C 24.6 °F /  -4.1 °C 29.60in /  1002.3hPa South 6.0mph /  9.7km/h 17.0mph /  27.4km/h 53% 0.02in /  0.5mm
12:19 40.9 °F /  4.9 °C 25.1 °F /  -3.8 °C 29.59in /  1001.9hPa SSW 7.0mph /  11.3km/h 18.0mph /  29km/h 53% 0.02in /  0.5mm
12:24 41.7 °F /  5.4 °C 24.9 °F /  -3.9 °C 29.59in /  1001.9hPa SSW 8.0mph /  12.9km/h 18.0mph /  29km/h 51% 0.02in /  0.5mm
12:29 42.7 °F /  5.9 °C 26.8 °F /  -2.9 °C 29.58in /  1001.6hPa SSW 9.0mph /  14.5km/h 18.0mph /  29km/h 53% 0.02in /  0.5mm
12:34 44.1 °F /  6.7 °C 25.2 °F /  -3.8 °C 29.57in /  1001.2hPa South 10.0mph /  16.1km/h 20.0mph /  32.2km/h 47% 0.02in /  0.5mm
12:39 44.3 °F /  6.8 °C 25.3 °F /  -3.7 °C 29.57in /  1001.2hPa SSW 7.0mph /  11.3km/h 20.0mph /  32.2km/h 47% 0.02in /  0.5mm
12:44 44.4 °F /  6.9 °C 24.9 °F /  -3.9 °C 29.56in /  1000.9hPa South 11.0mph /  17.7km/h 17.0mph /  27.4km/h 46% 0.02in /  0.5mm
12:49 45.3 °F /  7.4 °C 25.7 °F /  -3.5 °C 29.56in /  1000.9hPa SSW 6.0mph /  9.7km/h 17.0mph /  27.4km/h 46% 0.03in /  0.8mm
12:54 45.5 °F /  7.5 °C 25.9 °F /  -3.4 °C 29.56in /  1000.9hPa SSW 10.0mph /  16.1km/h 17.0mph /  27.4km/h 46% 0.03in /  0.8mm
13:00 44.7 °F /  7.1 °C 25.2 °F /  -3.8 °C 29.56in /  1000.9hPa SSW 10.0mph /  16.1km/h 18.0mph /  29km/h 46% 0.03in /  0.8mm
13:09 43.2 °F /  6.2 °C 24.3 °F /  -4.3 °C 29.58in /  1001.6hPa SW 5.0mph /  8km/h 15.0mph /  24.1km/h 47% 0.03in /  0.8mm
13:14 42.9 °F /  6.1 °C 24.6 °F /  -4.1 °C 29.56in /  1000.9hPa South 8.0mph /  12.9km/h 15.0mph /  24.1km/h 48% 0.03in /  0.8mm
13:20 44.2 °F /  6.8 °C 26.7 °F /  -2.9 °C 29.55in /  1000.6hPa SSW 8.0mph /  12.9km/h 15.0mph /  24.1km/h 50% 0.03in /  0.8mm
13:29 45.1 °F /  7.3 °C 27.1 °F /  -2.7 °C 29.55in /  1000.6hPa South 8.0mph /  12.9km/h 21.0mph /  33.8km/h 49% 0.03in /  0.8mm
13:34 44.7 °F /  7.1 °C 26.2 °F /  -3.2 °C 29.54in /  1000.2hPa SSW 7.0mph /  11.3km/h 21.0mph /  33.8km/h 48% 0.03in /  0.8mm
13:39 44.4 °F /  6.9 °C 26.4 °F /  -3.1 °C 29.54in /  1000.2hPa SSW 8.0mph /  12.9km/h 15.0mph /  24.1km/h 49% 0.03in /  0.8mm
13:44 44.6 °F /  7 °C 26.6 °F /  -3 °C 29.53in /  999.9hPa SSW 8.0mph /  12.9km/h 17.0mph /  27.4km/h 49% 0.03in /  0.8mm
13:49 44.4 °F /  6.9 °C 26.9 °F /  -2.8 °C 29.53in /  999.9hPa South 9.0mph /  14.5km/h 18.0mph /  29km/h 50% 0.03in /  0.8mm
13:54 44.7 °F /  7.1 °C 26.7 °F /  -2.9 °C 29.52in /  999.5hPa South 8.0mph /  12.9km/h 18.0mph /  29km/h 49% 0.03in /  0.8mm
13:59 45.0 °F /  7.2 °C 26.5 °F /  -3.1 °C 29.52in /  999.5hPa SSW 8.0mph /  12.9km/h 18.0mph /  29km/h 48% 0.03in /  0.8mm
14:04 44.9 °F /  7.2 °C 26.4 °F /  -3.1 °C 29.52in /  999.5hPa South 7.0mph /  11.3km/h 17.0mph /  27.4km/h 48% 0.03in /  0.8mm
14:09 44.8 °F /  7.1 °C 26.3 °F /  -3.2 °C 29.53in /  999.9hPa SSW 5.0mph /  8km/h 13.0mph /  20.9km/h 48% 0.03in /  0.8mm
14:14 44.5 °F /  6.9 °C 26.0 °F /  -3.3 °C 29.53in /  999.9hPa SSW 7.0mph /  11.3km/h 11.0mph /  17.7km/h 48% 0.03in /  0.8mm
14:19 44.3 °F /  6.8 °C 26.3 °F /  -3.2 °C 29.52in /  999.5hPa SSW 6.0mph /  9.7km/h 12.0mph /  19.3km/h 49% 0.03in /  0.8mm
14:24 44.2 °F /  6.8 °C 26.7 °F /  -2.9 °C 29.52in /  999.5hPa SSW 7.0mph /  11.3km/h 14.0mph /  22.5km/h 50% 0.03in /  0.8mm
14:35 43.9 °F /  6.6 °C 27.4 °F /  -2.6 °C 29.52in /  999.5hPa SSW 6.0mph /  9.7km/h 15.0mph /  24.1km/h 52% 0.03in /  0.8mm
14:44 44.0 °F /  6.7 °C 28.4 °F /  -2 °C 29.50in /  998.9hPa South 5.0mph /  8km/h 16.0mph /  25.7km/h 54% 0.03in /  0.8mm
14:49 44.2 °F /  6.8 °C 28.2 °F /  -2.1 °C 29.50in /  998.9hPa South 5.0mph /  8km/h 14.0mph /  22.5km/h 53% 0.03in /  0.8mm
14:54 44.2 °F /  6.8 °C 27.7 °F /  -2.4 °C 29.49in /  998.5hPa South 9.0mph /  14.5km/h 17.0mph /  27.4km/h 52% 0.03in /  0.8mm
14:59 44.1 °F /  6.7 °C 27.6 °F /  -2.4 °C 29.49in /  998.5hPa South 8.0mph /  12.9km/h 17.0mph /  27.4km/h 52% 0.03in /  0.8mm
15:04 44.3 °F /  6.8 °C 28.2 °F /  -2.1 °C 29.48in /  998.2hPa South 6.0mph /  9.7km/h 16.0mph /  25.7km/h 53% 0.03in /  0.8mm
15:09 44.6 °F /  7 °C 28.1 °F /  -2.2 °C 29.48in /  998.2hPa South 7.0mph /  11.3km/h 12.0mph /  19.3km/h 52% 0.03in /  0.8mm
15:14 44.5 °F /  6.9 °C 28.4 °F /  -2 °C 29.48in /  998.2hPa South 4.0mph /  6.4km/h 14.0mph /  22.5km/h 53% 0.03in /  0.8mm
15:19 44.4 °F /  6.9 °C 28.3 °F /  -2.1 °C 29.48in /  998.2hPa SSW 4.0mph /  6.4km/h 14.0mph /  22.5km/h 53% 0.03in /  0.8mm
15:25 44.2 °F /  6.8 °C 28.2 °F /  -2.1 °C 29.48in /  998.2hPa South 7.0mph /  11.3km/h 16.0mph /  25.7km/h 53% 0.03in /  0.8mm
15:35 44.0 °F /  6.7 °C 28.4 °F /  -2 °C 29.48in /  998.2hPa SSW 10.0mph /  16.1km/h 17.0mph /  27.4km/h 54% 0.03in /  0.8mm
15:44 43.8 °F /  6.6 °C 28.7 °F /  -1.8 °C 29.48in /  998.2hPa SSW 7.0mph /  11.3km/h 18.0mph /  29km/h 55% 0.03in /  0.8mm
15:50 43.7 °F /  6.5 °C 29.0 °F /  -1.7 °C 29.48in /  998.2hPa SSW 8.0mph /  12.9km/h 15.0mph /  24.1km/h 56% 0.03in /  0.8mm
15:55 43.5 °F /  6.4 °C 28.8 °F /  -1.8 °C 29.47in /  997.9hPa SSW 10.0mph /  16.1km/h 15.0mph /  24.1km/h 56% 0.03in /  0.8mm
16:04 43.6 °F /  6.4 °C 29.4 °F /  -1.4 °C 29.46in /  997.5hPa SSW 9.0mph /  14.5km/h 19.0mph /  30.6km/h 57% 0.03in /  0.8mm
16:09 43.7 °F /  6.5 °C 29.0 °F /  -1.7 °C 29.46in /  997.5hPa SSW 6.0mph /  9.7km/h 19.0mph /  30.6km/h 56% 0.03in /  0.8mm
16:15 43.7 °F /  6.5 °C 29.0 °F /  -1.7 °C 29.46in /  997.5hPa SSW 9.0mph /  14.5km/h 18.0mph /  29km/h 56% 0.03in /  0.8mm
16:24 43.5 °F /  6.4 °C 28.8 °F /  -1.8 °C 29.46in /  997.5hPa South 5.0mph /  8km/h 17.0mph /  27.4km/h 56% 0.03in /  0.8mm
16:30 43.4 °F /  6.3 °C 28.8 °F /  -1.8 °C 29.46in /  997.5hPa SSW 8.0mph /  12.9km/h 15.0mph /  24.1km/h 56% 0.03in /  0.8mm
16:35 43.4 °F /  6.3 °C 28.8 °F /  -1.8 °C 29.46in /  997.5hPa SSW 6.0mph /  9.7km/h 15.0mph /  24.1km/h 56% 0.03in /  0.8mm
16:44 43.6 °F /  6.4 °C 29.4 °F /  -1.4 °C 29.46in /  997.5hPa SSW 6.0mph /  9.7km/h 15.0mph /  24.1km/h 57% 0.03in /  0.8mm
16:49 43.7 °F /  6.5 °C 29.5 °F /  -1.4 °C 29.46in /  997.5hPa SSW 8.0mph /  12.9km/h 15.0mph /  24.1km/h 57% 0.03in /  0.8mm
16:54 43.7 °F /  6.5 °C 29.5 °F /  -1.4 °C 29.46in /  997.5hPa SSW 6.0mph /  9.7km/h 12.0mph /  19.3km/h 57% 0.03in /  0.8mm
17:00 43.8 °F /  6.6 °C 29.6 °F /  -1.3 °C 29.46in /  997.5hPa SSW 8.0mph /  12.9km/h 15.0mph /  24.1km/h 57% 0.03in /  0.8mm
17:05 44.0 °F /  6.7 °C 30.2 °F /  -1 °C 29.46in /  997.5hPa SSW 6.0mph /  9.7km/h 16.0mph /  25.7km/h 58% 0.03in /  0.8mm
17:14 44.0 °F /  6.7 °C 30.6 °F /  -0.8 °C 29.47in /  997.9hPa SSW 6.0mph /  9.7km/h 14.0mph /  22.5km/h 59% 0.03in /  0.8mm
17:19 44.1 °F /  6.7 °C 30.7 °F /  -0.7 °C 29.47in /  997.9hPa SW 9.0mph /  14.5km/h 13.0mph /  20.9km/h 59% 0.03in /  0.8mm
17:24 44.1 °F /  6.7 °C 31.1 °F /  -0.5 °C 29.47in /  997.9hPa SW 8.0mph /  12.9km/h 15.0mph /  24.1km/h 60% 0.03in /  0.8mm
17:29 44.1 °F /  6.7 °C 31.1 °F /  -0.5 °C 29.47in /  997.9hPa SW 9.0mph /  14.5km/h 16.0mph /  25.7km/h 60% 0.03in /  0.8mm
17:34 44.2 °F /  6.8 °C 31.6 °F /  -0.2 °C 29.47in /  997.9hPa SSW 8.0mph /  12.9km/h 17.0mph /  27.4km/h 61% 0.03in /  0.8mm
17:39 44.3 °F /  6.8 °C 31.7 °F /  -0.2 °C 29.47in /  997.9hPa SSW 11.0mph /  17.7km/h 17.0mph /  27.4km/h 61% 0.03in /  0.8mm
17:44 44.4 °F /  6.9 °C 31.8 °F /  -0.1 °C 29.47in /  997.9hPa SSW 6.0mph /  9.7km/h 17.0mph /  27.4km/h 61% 0.03in /  0.8mm
17:49 44.3 °F /  6.8 °C 32.5 °F /  0.3 °C 29.48in /  998.2hPa SSW 6.0mph /  9.7km/h 14.0mph /  22.5km/h 63% 0.03in /  0.8mm
17:59 43.7 °F /  6.5 °C 33.1 °F /  0.6 °C 29.48in /  998.2hPa SSW 6.0mph /  9.7km/h 17.0mph /  27.4km/h 66% 0.03in /  0.8mm
18:04 43.5 °F /  6.4 °C 33.6 °F /  0.9 °C 29.47in /  997.9hPa SSW 5.0mph /  8km/h 11.0mph /  17.7km/h 68% 0.03in /  0.8mm
18:09 43.3 °F /  6.3 °C 33.8 °F /  1 °C 29.47in /  997.9hPa SSW 8.0mph /  12.9km/h 15.0mph /  24.1km/h 69% 0.03in /  0.8mm
18:14 43.2 °F /  6.2 °C 34.1 °F /  1.2 °C 29.48in /  998.2hPa SSW 6.0mph /  9.7km/h 15.0mph /  24.1km/h 70% 0.03in /  0.8mm
18:19 43.1 °F /  6.2 °C 34.0 °F /  1.1 °C 29.47in /  997.9hPa SSW 5.0mph /  8km/h 11.0mph /  17.7km/h 70% 0.03in /  0.8mm
18:24 43.3 °F /  6.3 °C 34.2 °F /  1.2 °C 29.48in /  998.2hPa SSW 7.0mph /  11.3km/h 14.0mph /  22.5km/h 70% 0.03in /  0.8mm
18:29 43.4 °F /  6.3 °C 34.3 °F /  1.3 °C 29.48in /  998.2hPa SSW 9.0mph /  14.5km/h 16.0mph /  25.7km/h 70% 0.03in /  0.8mm
18:35 43.3 °F /  6.3 °C 34.5 °F /  1.4 °C 29.48in /  998.2hPa SSW 6.0mph /  9.7km/h 16.0mph /  25.7km/h 71% 0.03in /  0.8mm
18:44 43.2 °F /  6.2 °C 35.1 °F /  1.7 °C 29.48in /  998.2hPa SSW 4.0mph /  6.4km/h 14.0mph /  22.5km/h 73% 0.03in /  0.8mm
18:49 43.1 °F /  6.2 °C 35.0 °F /  1.7 °C 29.48in /  998.2hPa SW 4.0mph /  6.4km/h 11.0mph /  17.7km/h 73% 0.03in /  0.8mm
18:54 42.9 °F /  6.1 °C 35.2 °F /  1.8 °C 29.49in /  998.5hPa SSW 4.0mph /  6.4km/h 11.0mph /  17.7km/h 74% 0.03in /  0.8mm
18:59 42.8 °F /  6 °C 35.4 °F /  1.9 °C 29.49in /  998.5hPa Calm   8.0mph /  12.9km/h 75% 0.03in /  0.8mm
19:04 42.5 °F /  5.8 °C 35.5 °F /  1.9 °C 29.49in /  998.5hPa SSW 4.0mph /  6.4km/h 7.0mph /  11.3km/h 76% 0.03in /  0.8mm
19:09 42.4 °F /  5.8 °C 35.7 °F /  2.1 °C 29.50in /  998.9hPa SW 2.0mph /  3.2km/h 7.0mph /  11.3km/h 77% 0.04in /  1mm
19:14 42.4 °F /  5.8 °C 36.0 °F /  2.2 °C 29.51in /  999.2hPa West 2.0mph /  3.2km/h 7.0mph /  11.3km/h 78% 0.05in /  1.3mm
19:19 42.1 °F /  5.6 °C 36.4 °F /  2.4 °C 29.52in /  999.5hPa NNW 2.0mph /  3.2km/h 5.0mph /  8km/h 80% 0.05in /  1.3mm
19:24 41.7 °F /  5.4 °C 36.3 °F /  2.4 °C 29.52in /  999.5hPa NW 3.0mph /  4.8km/h 5.0mph /  8km/h 81% 0.06in /  1.5mm
19:29 41.6 °F /  5.3 °C 36.2 °F /  2.3 °C 29.52in /  999.5hPa WNW 3.0mph /  4.8km/h 8.0mph /  12.9km/h 81% 0.07in /  1.8mm
19:34 41.5 °F /  5.3 °C 36.4 °F /  2.4 °C 29.52in /  999.5hPa WNW 1.0mph /  1.6km/h 8.0mph /  12.9km/h 82% 0.08in /  2mm
19:39 41.2 °F /  5.1 °C 36.4 °F /  2.4 °C 29.52in /  999.5hPa WNW 1.0mph /  1.6km/h 4.0mph /  6.4km/h 83% 0.09in /  2.3mm
19:45 41.0 °F /  5 °C 36.5 °F /  2.5 °C 29.53in /  999.9hPa Calm   2.0mph /  3.2km/h 84% 0.09in /  2.3mm
19:54 40.7 °F /  4.8 °C 36.5 °F /  2.5 °C 29.53in /  999.9hPa Calm   1.0mph /  1.6km/h 85% 0.11in /  2.8mm
19:59 40.6 °F /  4.8 °C 36.7 °F /  2.6 °C 29.53in /  999.9hPa WNW 1.0mph /  1.6km/h 2.0mph /  3.2km/h 86% 0.11in /  2.8mm
20:04 40.5 °F /  4.7 °C 36.6 °F /  2.6 °C 29.53in /  999.9hPa Calm   3.0mph /  4.8km/h 86% 0.12in /  3mm
20:09 40.5 °F /  4.7 °C 36.6 °F /  2.6 °C 29.54in /  1000.2hPa Calm   3.0mph /  4.8km/h 86% 0.13in /  3.3mm
20:14 40.4 °F /  4.7 °C 36.8 °F /  2.7 °C 29.54in /  1000.2hPa WNW 1.0mph /  1.6km/h 3.0mph /  4.8km/h 87% 0.13in /  3.3mm
20:19 40.4 °F /  4.7 °C 36.8 °F /  2.7 °C 29.54in /  1000.2hPa WNW 1.0mph /  1.6km/h 3.0mph /  4.8km/h 87% 0.13in /  3.3mm
20:24 40.5 °F /  4.7 °C 36.9 °F /  2.7 °C 29.54in /  1000.2hPa Calm   3.0mph /  4.8km/h 87% 0.13in /  3.3mm
20:29 40.5 °F /  4.7 °C 36.9 °F /  2.7 °C 29.54in /  1000.2hPa WNW 2.0mph /  3.2km/h 4.0mph /  6.4km/h 87% 0.13in /  3.3mm
20:34 40.6 °F /  4.8 °C 37.3 °F /  2.9 °C 29.55in /  1000.6hPa WNW 1.0mph /  1.6km/h 4.0mph /  6.4km/h 88% 0.13in /  3.3mm
20:39 40.8 °F /  4.9 °C 37.5 °F /  3.1 °C 29.55in /  1000.6hPa WNW 2.0mph /  3.2km/h 4.0mph /  6.4km/h 88% 0.13in /  3.3mm
20:44 40.9 °F /  4.9 °C 37.6 °F /  3.1 °C 29.55in /  1000.6hPa WNW 2.0mph /  3.2km/h 4.0mph /  6.4km/h 88% 0.13in /  3.3mm
20:49 40.9 °F /  4.9 °C 37.6 °F /  3.1 °C 29.55in /  1000.6hPa NW 4.0mph /  6.4km/h 6.0mph /  9.7km/h 88% 0.13in /  3.3mm
20:54 40.9 °F /  4.9 °C 37.6 °F /  3.1 °C 29.56in /  1000.9hPa NW 4.0mph /  6.4km/h 8.0mph /  12.9km/h 88% 0.13in /  3.3mm
20:59 40.8 °F /  4.9 °C 37.5 °F /  3.1 °C 29.56in /  1000.9hPa NW 2.0mph /  3.2km/h 8.0mph /  12.9km/h 88% 0.13in /  3.3mm
21:04 40.7 °F /  4.8 °C 37.4 °F /  3 °C 29.56in /  1000.9hPa NW 5.0mph /  8km/h 9.0mph /  14.5km/h 88% 0.13in /  3.3mm
21:09 40.6 °F /  4.8 °C 37.3 °F /  2.9 °C 29.56in /  1000.9hPa NW 2.0mph /  3.2km/h 9.0mph /  14.5km/h 88% 0.13in /  3.3mm
21:14 40.4 °F /  4.7 °C 37.1 °F /  2.8 °C 29.56in /  1000.9hPa NW 2.0mph /  3.2km/h 10.0mph /  16.1km/h 88% 0.13in /  3.3mm
21:19 40.3 °F /  4.6 °C 37.0 °F /  2.8 °C 29.56in /  1000.9hPa NW 5.0mph /  8km/h 10.0mph /  16.1km/h 88% 0.13in /  3.3mm
21:24 40.1 °F /  4.5 °C 36.8 °F /  2.7 °C 29.57in /  1001.2hPa NW 2.0mph /  3.2km/h 9.0mph /  14.5km/h 88% 0.13in /  3.3mm
21:29 40.0 °F /  4.4 °C 36.7 °F /  2.6 °C 29.57in /  1001.2hPa NW 1.0mph /  1.6km/h 7.0mph /  11.3km/h 88% 0.13in /  3.3mm
21:34 39.8 °F /  4.3 °C 36.5 °F /  2.5 °C 29.57in /  1001.2hPa WNW 2.0mph /  3.2km/h 12.0mph /  19.3km/h 88% 0.13in /  3.3mm
21:40 39.7 °F /  4.3 °C 36.4 °F /  2.4 °C 29.57in /  1001.2hPa WNW 2.0mph /  3.2km/h 12.0mph /  19.3km/h 88% 0.13in /  3.3mm
21:49 39.4 °F /  4.1 °C 36.1 °F /  2.3 °C 29.57in /  1001.2hPa NW 3.0mph /  4.8km/h 8.0mph /  12.9km/h 88% 0.13in /  3.3mm
21:54 39.2 °F /  4 °C 35.9 °F /  2.2 °C 29.57in /  1001.2hPa NNW 3.0mph /  4.8km/h 8.0mph /  12.9km/h 88% 0.13in /  3.3mm
21:59 38.9 °F /  3.8 °C 35.7 °F /  2.1 °C 29.57in /  1001.2hPa NW 3.0mph /  4.8km/h 9.0mph /  14.5km/h 88% 0.13in /  3.3mm
22:04 38.7 °F /  3.7 °C 35.5 °F /  1.9 °C 29.57in /  1001.2hPa NNW 3.0mph /  4.8km/h 9.0mph /  14.5km/h 88% 0.13in /  3.3mm
22:09 38.4 °F /  3.6 °C 35.2 °F /  1.8 °C 29.58in /  1001.6hPa NW 1.0mph /  1.6km/h 7.0mph /  11.3km/h 88% 0.13in /  3.3mm
22:14 38.2 °F /  3.4 °C 35.0 °F /  1.7 °C 29.58in /  1001.6hPa NNW 5.0mph /  8km/h 10.0mph /  16.1km/h 88% 0.13in /  3.3mm
22:19 37.9 °F /  3.3 °C 34.7 °F /  1.5 °C 29.58in /  1001.6hPa NNW 4.0mph /  6.4km/h 10.0mph /  16.1km/h 88% 0.13in /  3.3mm
22:24 37.7 °F /  3.2 °C 34.5 °F /  1.4 °C 29.58in /  1001.6hPa NNW 4.0mph /  6.4km/h 7.0mph /  11.3km/h 88% 0.13in /  3.3mm
22:29 37.4 °F /  3 °C 34.2 °F /  1.2 °C 29.58in /  1001.6hPa NW 4.0mph /  6.4km/h 8.0mph /  12.9km/h 88% 0.13in /  3.3mm
22:34 37.2 °F /  2.9 °C 34.0 °F /  1.1 °C 29.58in /  1001.6hPa NNW 2.0mph /  3.2km/h 8.0mph /  12.9km/h 88% 0.13in /  3.3mm
22:44 36.8 °F /  2.7 °C 33.6 °F /  0.9 °C 29.58in /  1001.6hPa NW 2.0mph /  3.2km/h 8.0mph /  12.9km/h 88% 0.13in /  3.3mm
22:49 36.7 °F /  2.6 °C 33.8 °F /  1 °C 29.58in /  1001.6hPa NW 2.0mph /  3.2km/h 5.0mph /  8km/h 89% 0.13in /  3.3mm
22:54 36.6 °F /  2.6 °C 33.7 °F /  0.9 °C 29.58in /  1001.6hPa WNW 2.0mph /  3.2km/h 6.0mph /  9.7km/h 89% 0.13in /  3.3mm
22:59 36.4 °F /  2.4 °C 33.5 °F /  0.8 °C 29.58in /  1001.6hPa NW 1.0mph /  1.6km/h 6.0mph /  9.7km/h 89% 0.13in /  3.3mm
23:04 36.3 °F /  2.4 °C 33.4 °F /  0.8 °C 29.58in /  1001.6hPa NW 2.0mph /  3.2km/h 6.0mph /  9.7km/h 89% 0.13in /  3.3mm
23:09 36.0 °F /  2.2 °C 33.1 °F /  0.6 °C 29.58in /  1001.6hPa NW 3.0mph /  4.8km/h 6.0mph /  9.7km/h 89% 0.13in /  3.3mm
23:14 35.8 °F /  2.1 °C 32.9 °F /  0.5 °C 29.58in /  1001.6hPa NW 3.0mph /  4.8km/h 9.0mph /  14.5km/h 89% 0.13in /  3.3mm
23:19 35.6 °F /  2 °C 32.7 °F /  0.4 °C 29.58in /  1001.6hPa NNW 3.0mph /  4.8km/h 9.0mph /  14.5km/h 89% 0.13in /  3.3mm
23:24 35.5 °F /  1.9 °C 32.6 °F /  0.3 °C 29.58in /  1001.6hPa NW 5.0mph /  8km/h 11.0mph /  17.7km/h 89% 0.13in /  3.3mm
23:29 35.3 °F /  1.8 °C 32.7 °F /  0.4 °C 29.58in /  1001.6hPa NNW 5.0mph /  8km/h 11.0mph /  17.7km/h 90% 0.13in /  3.3mm
23:34 35.1 °F /  1.7 °C 32.5 °F /  0.3 °C 29.58in /  1001.6hPa NNW 6.0mph /  9.7km/h 11.0mph /  17.7km/h 90% 0.13in /  3.3mm
23:39 34.9 °F /  1.6 °C 32.3 °F /  0.2 °C 29.58in /  1001.6hPa NNW 6.0mph /  9.7km/h 13.0mph /  20.9km/h 90% 0.13in /  3.3mm
23:44 34.7 °F /  1.5 °C 32.1 °F /  0.1 °C 29.58in /  1001.6hPa NNW 6.0mph /  9.7km/h 14.0mph /  22.5km/h 90% 0.13in /  3.3mm
23:49 34.5 °F /  1.4 °C 31.9 °F /  -0.1 °C 29.58in /  1001.6hPa NNW 5.0mph /  8km/h 14.0mph /  22.5km/h 90% 0.13in /  3.3mm
23:54 34.4 °F /  1.3 °C 31.8 °F /  -0.1 °C 29.58in /  1001.6hPa NNW 4.0mph /  6.4km/h 14.0mph /  22.5km/h 90% 0.13in /  3.3mm
23:59 34.4 °F /  1.3 °C 32.0 °F /  0 °C 29.58in /  1001.6hPa NW 4.0mph /  6.4km/h 10.0mph /  16.1km/h 91% 0.13in /  3.3mm
Westford Weather
Compliments of Weather Underground

 
 
Current Radar Loop:

Copyright © WestfordWeather.net 2007-2014. All rights reserved.